createdAt,value
2018-08-03T00:00:07.744Z,102328.11
2018-08-03T00:02:35.675Z,102332.38
2018-08-03T00:05:03.379Z,102331.66
2018-08-03T00:07:31.058Z,102326.34
2018-08-03T00:09:58.690Z,102330.89
2018-08-03T00:12:26.688Z,102326.62
2018-08-03T00:14:54.727Z,102324.18
2018-08-03T00:17:22.385Z,102317.98
2018-08-03T00:19:50.678Z,102315.00
2018-08-03T00:22:18.496Z,102322.80
2018-08-03T00:24:46.411Z,102316.96
2018-08-03T00:27:14.037Z,102322.52
2018-08-03T00:29:42.151Z,102313.05
2018-08-03T00:32:09.790Z,102314.59
2018-08-03T00:34:37.406Z,102313.78
2018-08-03T00:37:05.318Z,102311.53
2018-08-03T00:39:32.995Z,102317.36
2018-08-03T00:42:01.156Z,102320.31
2018-08-03T00:44:28.821Z,102313.23
2018-08-03T00:46:57.174Z,102303.45
2018-08-03T00:49:24.814Z,102311.42
2018-08-03T00:51:52.425Z,102310.41
2018-08-03T00:54:20.041Z,102310.01
2018-08-03T00:56:48.014Z,102309.17
2018-08-03T00:59:16.160Z,102310.58
2018-08-03T01:01:43.835Z,102307.56
2018-08-03T01:04:11.505Z,102310.83
2018-08-03T01:06:39.232Z,102308.90
2018-08-03T01:09:09.385Z,102303.75
2018-08-03T01:11:37.061Z,102315.38
2018-08-03T01:14:04.848Z,102316.78
2018-08-03T01:16:36.970Z,102317.82
2018-08-03T01:19:05.054Z,102311.34
2018-08-03T01:21:32.889Z,102310.42
2018-08-03T01:24:01.106Z,102313.04
2018-08-03T01:26:28.787Z,102313.88
2018-08-03T01:28:56.433Z,102309.27
2018-08-03T01:31:24.768Z,102317.11
2018-08-03T01:33:52.427Z,102316.58
2018-08-03T01:36:20.134Z,102309.41
2018-08-03T01:38:47.836Z,102310.06
2018-08-03T01:41:15.481Z,102306.55
2018-08-03T01:43:43.141Z,102302.59
2018-08-03T01:46:10.912Z,102301.09
2018-08-03T01:48:38.938Z,102299.64
2018-08-03T01:51:06.738Z,102306.81
2018-08-03T01:53:34.773Z,102304.42
2018-08-03T01:56:02.513Z,102295.93
2018-08-03T01:58:30.201Z,102297.43
2018-08-03T02:00:57.898Z,102294.89
2018-08-03T02:03:25.677Z,102299.41
2018-08-03T02:05:53.722Z,102298.31
2018-08-03T02:08:21.376Z,102295.38
2018-08-03T02:10:49.075Z,102291.80
2018-08-03T02:13:17.315Z,102290.59
2018-08-03T02:15:45.408Z,102289.59
2018-08-03T02:18:13.094Z,102292.23
2018-08-03T02:20:41.003Z,102290.99
2018-08-03T02:23:08.962Z,102300.27
2018-08-03T02:25:36.689Z,102288.64
2018-08-03T02:28:04.354Z,102296.16
2018-08-03T02:30:32.040Z,102293.80
2018-08-03T02:32:59.704Z,102294.56
2018-08-03T02:35:28.063Z,102287.02
2018-08-03T02:37:55.733Z,102289.03
2018-08-03T02:40:24.017Z,102290.06
2018-08-03T02:42:51.981Z,102287.17
2018-08-03T02:45:19.880Z,102286.09
2018-08-03T02:47:47.534Z,102291.60
2018-08-03T02:50:15.261Z,102294.58
2018-08-03T02:52:42.910Z,102295.95
2018-08-03T02:55:10.894Z,102291.08
2018-08-03T02:57:38.772Z,102291.64
2018-08-03T03:00:06.929Z,102282.95
2018-08-03T03:02:34.928Z,102283.59
2018-08-03T03:05:03.305Z,102284.95
2018-08-03T03:07:31.565Z,102281.34
2018-08-03T03:09:59.529Z,102282.99
2018-08-03T03:12:27.669Z,102280.15
2018-08-03T03:14:55.876Z,102281.03
2018-08-03T03:17:23.829Z,102292.92
2018-08-03T03:19:51.463Z,102289.91
2018-08-03T03:22:19.135Z,102294.63
2018-08-03T03:24:47.002Z,102291.97
2018-08-03T03:27:14.630Z,102293.30
2018-08-03T03:29:42.356Z,102289.39
2018-08-03T03:32:10.335Z,102297.03
2018-08-03T03:34:38.085Z,102285.77
2018-08-03T03:37:06.024Z,102288.02
2018-08-03T03:39:33.681Z,102286.17
2018-08-03T03:42:01.373Z,102283.53
2018-08-03T03:44:29.075Z,102281.41
2018-08-03T03:46:56.741Z,102286.00
2018-08-03T03:49:24.438Z,102278.60
2018-08-03T03:51:52.095Z,102281.81
2018-08-03T03:54:19.830Z,102285.38
2018-08-03T03:56:48.231Z,102285.05
2018-08-03T03:59:16.160Z,102282.40
2018-08-03T04:01:43.833Z,102278.42
2018-08-03T04:04:11.478Z,102204.06
2018-08-03T04:06:39.313Z,102286.67
2018-08-03T04:09:10.083Z,102276.46
2018-08-03T04:11:37.943Z,102283.59
2018-08-03T04:14:05.591Z,102280.19
2018-08-03T04:16:33.362Z,102277.45
2018-08-03T04:19:01.123Z,102275.93
2018-08-03T04:21:29.088Z,102280.34
2018-08-03T04:24:01.045Z,102281.44
2018-08-03T04:26:28.766Z,102279.23
2018-08-03T04:28:56.607Z,102284.09
2018-08-03T04:31:25.024Z,102284.94
2018-08-03T04:33:52.914Z,102283.12
2018-08-03T04:36:20.641Z,102285.70
2018-08-03T04:38:48.366Z,102282.07
2018-08-03T04:41:16.046Z,102285.18
2018-08-03T04:43:43.732Z,102288.72
2018-08-03T04:46:11.397Z,102281.19
2018-08-03T04:48:39.155Z,102280.25
2018-08-03T04:51:07.244Z,102285.84
2018-08-03T04:53:34.948Z,102284.11
2018-08-03T04:56:03.198Z,102291.48
2018-08-03T04:58:31.197Z,102292.05
2018-08-03T05:00:59.242Z,102293.17
2018-08-03T05:03:26.957Z,102293.87
2018-08-03T05:05:54.979Z,102300.73
2018-08-03T05:08:23.633Z,102301.45
2018-08-03T05:10:51.313Z,102304.27
2018-08-03T05:13:19.237Z,102309.45
2018-08-03T05:15:47.086Z,102304.16
2018-08-03T05:18:26.118Z,102309.78
2018-08-03T05:20:54.950Z,102305.03
2018-08-03T05:23:22.578Z,102307.34
2018-08-03T05:25:50.498Z,102311.91
2018-08-03T05:28:18.522Z,102314.93
2018-08-03T05:30:46.193Z,102311.76
2018-08-03T05:33:14.209Z,102318.51
2018-08-03T05:35:42.093Z,102318.95
2018-08-03T05:38:09.761Z,102322.01
2018-08-03T05:40:37.446Z,102322.33
2018-08-03T05:43:05.064Z,102318.98
2018-08-03T05:45:32.736Z,102324.17
2018-08-03T05:48:00.418Z,102322.69
2018-08-03T05:50:29.419Z,102323.58
2018-08-03T05:52:57.109Z,102319.14
2018-08-03T05:55:24.824Z,102321.87
2018-08-03T05:57:53.122Z,102322.55
2018-08-03T06:00:21.172Z,102324.33
2018-08-03T06:02:51.333Z,102317.61
2018-08-03T06:05:19.516Z,102320.40
2018-08-03T06:07:48.329Z,102321.24
2018-08-03T06:10:16.234Z,102318.59
2018-08-03T06:12:43.881Z,102323.94
2018-08-03T06:15:12.680Z,102325.02
2018-08-03T06:17:40.452Z,102327.19
2018-08-03T06:20:10.498Z,102326.67
2018-08-03T06:22:38.496Z,102329.77
2018-08-03T06:25:07.246Z,102330.02
2018-08-03T06:27:34.934Z,102314.73
2018-08-03T06:30:02.933Z,102314.13
2018-08-03T06:32:30.831Z,102310.87
2018-08-03T06:34:58.639Z,102317.61
2018-08-03T06:37:26.297Z,102318.29
2018-08-03T06:39:54.267Z,102323.84
2018-08-03T06:42:21.978Z,102325.41
2018-08-03T06:44:49.662Z,102325.94
2018-08-03T06:47:17.313Z,102323.69
2018-08-03T06:49:44.961Z,102324.69
2018-08-03T06:52:12.636Z,102323.64
2018-08-03T06:54:40.313Z,102317.47
2018-08-03T06:57:08.840Z,102317.94
2018-08-03T06:59:36.817Z,102315.45
2018-08-03T07:02:04.753Z,102314.52
2018-08-03T07:04:32.930Z,102311.52
2018-08-03T07:07:01.670Z,102305.76
2018-08-03T07:09:29.761Z,102309.88
2018-08-03T07:11:57.448Z,102304.30
2018-08-03T07:14:25.362Z,102299.64
2018-08-03T07:16:53.018Z,102296.67
2018-08-03T07:19:20.939Z,102300.25
2018-08-03T07:21:48.577Z,102302.11
2018-08-03T07:24:16.713Z,102304.34
2018-08-03T07:26:44.396Z,102303.00
2018-08-03T07:29:12.400Z,102300.87
2018-08-03T07:31:40.126Z,102313.23
2018-08-03T07:34:07.861Z,102303.97
2018-08-03T07:36:35.966Z,102305.46
2018-08-03T07:39:05.126Z,102301.37
2018-08-03T07:41:32.875Z,102308.59
2018-08-03T07:44:00.603Z,102305.28
2018-08-03T07:46:28.356Z,102302.83
2018-08-03T07:48:55.972Z,102302.33
2018-08-03T07:51:24.061Z,102298.79
2018-08-03T07:53:51.753Z,102298.05
2018-08-03T07:56:19.430Z,102299.83
2018-08-03T07:58:47.344Z,102298.50
2018-08-03T08:01:15.335Z,102303.88
2018-08-03T08:03:43.268Z,102298.55
2018-08-03T08:06:11.230Z,102303.67
2018-08-03T08:08:38.845Z,102295.00
2018-08-03T08:11:06.863Z,102296.73
2018-08-03T08:13:37.432Z,102295.84
2018-08-03T08:16:05.494Z,102287.42
2018-08-03T08:18:33.705Z,102290.53
2018-08-03T08:21:01.632Z,102284.66
2018-08-03T08:23:29.533Z,102283.96
2018-08-03T08:25:57.533Z,102270.95
2018-08-03T08:28:25.273Z,102274.80
2018-08-03T08:30:52.920Z,102280.41
2018-08-03T08:33:20.608Z,102278.05
2018-08-03T08:35:48.354Z,102269.95
2018-08-03T08:38:16.084Z,102265.85
2018-08-03T08:40:43.729Z,102266.68
2018-08-03T08:43:11.441Z,102262.29
2018-08-03T08:45:39.743Z,102264.81
2018-08-03T08:48:07.717Z,102253.66
2018-08-03T08:50:36.060Z,102255.33
2018-08-03T08:53:03.726Z,102261.39
2018-08-03T08:55:31.500Z,102262.61
2018-08-03T08:57:59.153Z,102262.50
2018-08-03T09:00:26.924Z,102256.58
2018-08-03T09:02:54.924Z,102255.19
2018-08-03T09:05:22.661Z,102255.98
2018-08-03T09:07:50.543Z,102256.80
2018-08-03T09:10:18.774Z,102256.20
2018-08-03T09:12:46.526Z,102251.36
2018-08-03T09:15:14.229Z,102242.44
2018-08-03T09:17:42.248Z,102242.30
2018-08-03T09:20:10.195Z,102243.17
2018-08-03T09:22:37.914Z,102242.17
2018-08-03T09:25:05.752Z,102238.52
2018-08-03T09:27:33.474Z,102234.47
2018-08-03T09:30:01.381Z,102238.46
2018-08-03T09:32:29.364Z,102240.07
2018-08-03T09:34:57.543Z,102238.62
2018-08-03T09:37:25.807Z,102236.81
2018-08-03T09:39:53.910Z,102234.48
2018-08-03T09:42:21.934Z,102230.77
2018-08-03T09:44:49.637Z,102227.52
2018-08-03T09:47:17.537Z,102229.68
2018-08-03T09:49:45.240Z,102226.41
2018-08-03T09:52:13.506Z,102226.78
2018-08-03T09:54:41.805Z,102226.69
2018-08-03T09:57:09.514Z,102221.69
2018-08-03T09:59:37.467Z,102221.52
2018-08-03T10:02:05.143Z,102220.96
2018-08-03T10:04:32.869Z,102222.17
2018-08-03T10:07:00.580Z,102209.67
2018-08-03T10:09:28.420Z,102213.51
2018-08-03T10:11:56.581Z,102216.05
2018-08-03T10:14:24.590Z,102214.11
2018-08-03T10:16:52.342Z,102214.87
2018-08-03T10:19:20.435Z,102212.92
2018-08-03T10:21:48.124Z,102217.25
2018-08-03T10:24:16.133Z,102214.03
2018-08-03T10:26:43.792Z,102204.19
2018-08-03T10:29:11.475Z,102214.24
2018-08-03T10:31:40.160Z,102213.17
2018-08-03T10:34:07.881Z,102199.39
2018-08-03T10:36:35.645Z,102197.05
2018-08-03T10:39:05.086Z,102202.19
2018-08-03T10:41:32.764Z,102191.95
2018-08-03T10:44:00.473Z,102195.79
2018-08-03T10:46:28.349Z,102196.87
2018-08-03T10:48:55.976Z,102181.58
2018-08-03T10:51:23.687Z,102186.30
2018-08-03T10:53:51.423Z,102193.28
2018-08-03T10:56:19.312Z,102184.31
2018-08-03T10:58:47.012Z,102186.88
2018-08-03T11:01:15.083Z,102182.81
2018-08-03T11:03:44.200Z,102181.70
2018-08-03T11:06:11.828Z,102176.31
2018-08-03T11:08:39.602Z,102177.87
2018-08-03T11:11:07.265Z,102172.89
2018-08-03T11:13:35.204Z,102170.61
2018-08-03T11:16:03.101Z,102170.55
2018-08-03T11:18:31.011Z,102098.42
2018-08-03T11:20:59.304Z,102172.01
2018-08-03T11:23:28.013Z,102167.55
2018-08-03T11:25:55.821Z,102177.21
2018-08-03T11:28:24.332Z,102165.34
2018-08-03T11:30:52.095Z,102174.67
2018-08-03T11:33:19.819Z,102176.72
2018-08-03T11:35:48.030Z,102172.66
2018-08-03T11:38:15.719Z,102168.91
2018-08-03T11:40:43.536Z,102172.39
2018-08-03T11:43:11.189Z,102169.62
2018-08-03T11:45:39.217Z,102166.63
2018-08-03T11:48:07.431Z,102163.57
2018-08-03T11:50:35.095Z,102168.91
2018-08-03T11:53:03.157Z,102165.84
2018-08-03T11:55:30.849Z,102164.12
2018-08-03T11:57:59.289Z,102162.56
2018-08-03T12:00:27.248Z,102162.03
2018-08-03T12:02:55.484Z,102154.48
2018-08-03T12:05:23.843Z,102155.75
2018-08-03T12:07:51.492Z,102159.20
2018-08-03T12:10:19.702Z,102153.41
2018-08-03T12:12:48.044Z,102153.80
2018-08-03T12:15:16.060Z,102146.92
2018-08-03T12:17:43.703Z,102144.86
2018-08-03T12:20:11.397Z,102148.16
2018-08-03T12:22:39.057Z,102149.26
2018-08-03T12:25:06.731Z,102150.45
2018-08-03T12:27:34.439Z,102147.16
2018-08-03T12:30:02.353Z,102146.62
2018-08-03T12:32:30.616Z,102145.16
2018-08-03T12:34:58.310Z,102139.18
2018-08-03T12:37:25.961Z,102142.55
2018-08-03T12:39:53.579Z,102145.96
2018-08-03T12:42:21.625Z,102146.73
2018-08-03T12:44:49.269Z,102140.38
2018-08-03T12:47:16.909Z,102136.69
2018-08-03T12:49:44.601Z,102135.66
2018-08-03T12:52:12.298Z,102131.90
2018-08-03T12:54:39.925Z,102135.83
2018-08-03T12:57:07.892Z,102136.14
2018-08-03T12:59:35.930Z,102136.00
2018-08-03T13:02:03.548Z,102137.16
2018-08-03T13:04:31.189Z,102138.77
2018-08-03T13:06:58.853Z,102132.02
2018-08-03T13:09:26.835Z,102134.09
2018-08-03T13:11:54.518Z,102128.56
2018-08-03T13:14:22.452Z,102124.02
2018-08-03T13:16:50.180Z,102120.71
2018-08-03T13:19:17.856Z,102123.69
2018-08-03T13:21:45.514Z,102128.89
2018-08-03T13:24:13.180Z,102126.06
2018-08-03T13:26:40.801Z,102124.16
2018-08-03T13:29:08.750Z,102120.85
2018-08-03T13:31:36.417Z,102114.90
2018-08-03T13:34:04.065Z,102121.39
2018-08-03T13:36:32.076Z,102122.58
2018-08-03T13:38:59.767Z,102123.77
2018-08-03T13:41:27.471Z,102109.91
2018-08-03T13:43:55.410Z,102113.30
2018-08-03T13:46:23.065Z,102104.72
2018-08-03T13:48:50.826Z,102099.59
2018-08-03T13:51:19.147Z,102097.72
2018-08-03T13:53:47.358Z,102096.31
2018-08-03T13:56:15.780Z,102097.95
2018-08-03T13:58:44.372Z,102103.64
2018-08-03T14:01:23.441Z,102098.59
2018-08-03T14:03:51.465Z,102101.58
2018-08-03T14:06:19.515Z,102099.59
2018-08-03T14:08:48.273Z,102098.55
2018-08-03T14:11:16.948Z,102099.35
2018-08-03T14:13:45.048Z,102093.81
2018-08-03T14:16:13.090Z,102095.45
2018-08-03T14:18:41.440Z,102097.51
2018-08-03T14:21:09.415Z,102096.28
2018-08-03T14:23:37.050Z,102088.16
2018-08-03T14:26:04.957Z,102090.58
2018-08-03T14:28:32.681Z,102085.52
2018-08-03T14:31:00.353Z,102079.73
2018-08-03T14:33:28.262Z,102083.63
2018-08-03T14:35:56.510Z,102086.30
2018-08-03T14:38:24.619Z,102086.34
2018-08-03T14:40:52.285Z,102086.69
2018-08-03T14:43:20.013Z,102079.06
2018-08-03T14:45:47.682Z,102084.34
2018-08-03T14:48:15.349Z,102081.09
2018-08-03T14:50:43.072Z,102074.39
2018-08-03T14:53:10.769Z,102078.31
2018-08-03T14:55:38.447Z,102084.46
2018-08-03T14:58:06.162Z,102079.53
2018-08-03T15:00:33.800Z,102084.54
2018-08-03T15:03:02.005Z,102085.28
2018-08-03T15:05:30.257Z,102081.36
2018-08-03T15:07:57.894Z,102075.02
2018-08-03T15:10:25.706Z,102070.89
2018-08-03T15:12:53.413Z,102069.16
2018-08-03T15:15:21.079Z,102072.44
2018-08-03T15:17:48.783Z,102061.91
2018-08-03T15:20:16.465Z,102065.92
2018-08-03T15:22:44.433Z,102059.72
2018-08-03T15:25:12.513Z,102060.36
2018-08-03T15:27:40.160Z,102057.68
2018-08-03T15:30:09.153Z,102053.69
2018-08-03T15:32:36.846Z,102050.94
2018-08-03T15:35:05.124Z,102053.89
2018-08-03T15:37:32.833Z,102044.50
2018-08-03T15:40:00.551Z,102042.94
2018-08-03T15:42:28.593Z,102040.44
2018-08-03T15:44:56.400Z,102040.41
2018-08-03T15:47:24.256Z,102038.70
2018-08-03T15:49:51.964Z,102038.66
2018-08-03T15:52:19.889Z,102033.52
2018-08-03T15:54:47.905Z,102036.37
2018-08-03T15:57:15.893Z,102035.28
2018-08-03T15:59:43.686Z,102028.76
2018-08-03T16:02:11.327Z,102027.50
2018-08-03T16:04:39.040Z,102028.47
2018-08-03T16:07:06.698Z,102027.88
2018-08-03T16:09:34.665Z,102029.31
2018-08-03T16:12:02.360Z,102025.58
2018-08-03T16:14:30.019Z,102025.08
2018-08-03T16:16:57.646Z,102022.78
2018-08-03T16:19:25.885Z,102024.12
2018-08-03T16:21:53.859Z,102017.13
2018-08-03T16:24:21.523Z,102020.85
2018-08-03T16:26:49.496Z,102019.59
2018-08-03T16:29:17.280Z,102025.04
2018-08-03T16:31:45.237Z,102028.18
2018-08-03T16:34:13.110Z,102019.39
2018-08-03T16:36:41.530Z,102020.15
2018-08-03T16:39:10.251Z,102020.73
2018-08-03T16:41:38.461Z,102010.98
2018-08-03T16:44:06.151Z,102014.20
2018-08-03T16:46:34.373Z,102015.54
2018-08-03T16:49:02.139Z,102012.66
2018-08-03T16:51:30.121Z,102006.08
2018-08-03T16:53:57.915Z,102005.29
2018-08-03T16:56:25.634Z,102007.30
2018-08-03T16:58:53.427Z,102004.66
2018-08-03T17:01:21.108Z,102007.17
2018-08-03T17:03:48.872Z,102010.44
2018-08-03T17:06:16.563Z,102007.21
2018-08-03T17:08:45.026Z,102006.75
2018-08-03T17:11:13.021Z,102006.25
2018-08-03T17:13:40.924Z,102001.69
2018-08-03T17:16:09.011Z,102003.64
2018-08-03T17:18:37.523Z,102003.34
2018-08-03T17:21:05.433Z,102002.41
2018-08-03T17:23:33.673Z,102001.39
2018-08-03T17:26:01.586Z,101997.68
2018-08-03T17:28:29.324Z,101996.24
2018-08-03T17:30:56.978Z,101997.73
2018-08-03T17:33:24.889Z,101995.14
2018-08-03T17:35:52.893Z,101991.28
2018-08-03T17:38:20.546Z,101989.39
2018-08-03T17:40:48.206Z,101994.64
2018-08-03T17:43:15.886Z,101993.39
2018-08-03T17:45:44.093Z,101998.01
2018-08-03T17:48:12.385Z,102000.88
2018-08-03T17:50:40.111Z,101995.80
2018-08-03T17:53:07.818Z,101998.84
2018-08-03T17:55:35.982Z,102001.44
2018-08-03T17:58:03.971Z,101998.66
2018-08-03T18:00:31.655Z,102001.81
2018-08-03T18:02:59.981Z,102004.91
2018-08-03T18:05:27.619Z,102001.72
2018-08-03T18:07:55.348Z,102004.41
2018-08-03T18:10:23.040Z,102004.03
2018-08-03T18:12:50.707Z,102005.65
2018-08-03T18:15:18.753Z,102002.37
2018-08-03T18:17:46.429Z,102007.36
2018-08-03T18:20:14.384Z,101995.88
2018-08-03T18:22:42.334Z,101995.11
2018-08-03T18:25:09.988Z,102002.87
2018-08-03T18:27:37.996Z,102007.12
2018-08-03T18:30:07.016Z,102003.37
2018-08-03T18:32:34.657Z,101998.76
2018-08-03T18:35:02.323Z,101998.19
2018-08-03T18:37:30.017Z,101998.09
2018-08-03T18:39:57.658Z,101998.00
2018-08-03T18:42:25.716Z,101998.40
2018-08-03T18:44:53.812Z,102009.90
2018-08-03T18:47:21.788Z,102005.08
2018-08-03T18:49:49.517Z,102004.59
2018-08-03T18:52:17.500Z,102005.22
2018-08-03T18:54:45.718Z,102011.70
2018-08-03T18:57:13.337Z,102018.28
2018-08-03T18:59:40.978Z,102025.17
2018-08-03T19:02:08.706Z,102027.46
2018-08-03T19:04:36.349Z,102026.66
2018-08-03T19:07:04.027Z,102023.94
2018-08-03T19:09:31.716Z,102023.05
2018-08-03T19:11:59.765Z,102022.92
2018-08-03T19:14:27.666Z,102025.00
2018-08-03T19:16:55.330Z,102017.06
2018-08-03T19:19:23.047Z,102017.26
2018-08-03T19:21:50.830Z,102022.02
2018-08-03T19:24:18.419Z,102023.67
2018-08-03T19:26:46.334Z,102016.00
2018-08-03T19:29:14.289Z,102020.75
2018-08-03T19:31:41.922Z,102022.80
2018-08-03T19:34:09.526Z,102023.06
2018-08-03T19:36:37.497Z,102025.21
2018-08-03T19:39:08.179Z,102026.86
2018-08-03T19:41:36.106Z,102036.00
2018-08-03T19:44:04.120Z,102032.22
2018-08-03T19:46:32.086Z,102034.75
2018-08-03T19:48:59.769Z,102039.02
2018-08-03T19:51:27.429Z,102027.30
2018-08-03T19:53:55.463Z,102029.28
2018-08-03T19:56:23.507Z,102029.44
2018-08-03T19:58:51.279Z,102034.55
2018-08-03T20:01:18.925Z,102037.41
2018-08-03T20:03:47.090Z,102030.50
2018-08-03T20:06:15.157Z,102036.00
2018-08-03T20:08:42.842Z,102046.76
2018-08-03T20:11:10.562Z,102047.40
2018-08-03T20:13:38.577Z,102047.63
2018-08-03T20:16:06.561Z,102045.48
2018-08-03T20:18:34.277Z,102044.38
2018-08-03T20:21:02.006Z,102043.61
2018-08-03T20:23:29.791Z,102042.03
2018-08-03T20:25:58.090Z,102050.13
2018-08-03T20:28:25.980Z,102047.14
2018-08-03T20:30:53.989Z,102038.81
2018-08-03T20:33:21.678Z,102037.63
2018-08-03T20:35:49.330Z,102035.14
2018-08-03T20:38:16.994Z,102033.06
2018-08-03T20:40:44.661Z,102032.69
2018-08-03T20:43:12.313Z,102031.11
2018-08-03T20:45:40.347Z,102039.69
2018-08-03T20:48:08.022Z,102032.59
2018-08-03T20:50:36.238Z,102044.68
2018-08-03T20:53:03.922Z,102044.33
2018-08-03T20:55:31.675Z,102045.50
2018-08-03T20:57:59.355Z,102048.03
2018-08-03T21:00:27.298Z,102044.71
2018-08-03T21:02:55.097Z,102045.98
2018-08-03T21:05:22.800Z,102045.64
2018-08-03T21:07:51.893Z,102040.47
2018-08-03T21:10:19.748Z,102036.81
2018-08-03T21:12:47.592Z,102042.06
2018-08-03T21:15:15.413Z,102046.83
2018-08-03T21:17:43.457Z,102052.15
2018-08-03T21:20:12.713Z,102048.86
2018-08-03T21:22:41.459Z,102031.98
2018-08-03T21:25:09.551Z,102042.16
2018-08-03T21:27:38.102Z,102040.94
2018-08-03T21:30:07.948Z,102039.81
2018-08-03T21:32:36.607Z,102043.26
2018-08-03T21:35:04.964Z,102040.06
2018-08-03T21:37:33.543Z,102037.94
2018-08-03T21:40:01.896Z,102035.18
2018-08-03T21:42:30.716Z,102044.50
2018-08-03T21:44:59.020Z,102044.40
2018-08-03T21:47:27.528Z,102045.91
2018-08-03T21:49:55.925Z,102040.73
2018-08-03T21:52:24.729Z,102042.55
2018-08-03T21:54:53.585Z,102041.22
2018-08-03T21:57:21.950Z,102042.35
2018-08-03T21:59:50.115Z,102035.33
2018-08-03T22:02:18.432Z,102032.33
2018-08-03T22:04:46.432Z,102035.28
2018-08-03T22:07:14.785Z,102037.77
2018-08-03T22:09:42.936Z,102042.22
2018-08-03T22:12:10.672Z,102040.45
2018-08-03T22:14:38.409Z,102036.78
2018-08-03T22:17:06.262Z,102032.97
2018-08-03T22:19:34.499Z,102033.42
2018-08-03T22:22:02.213Z,102028.38
2018-08-03T22:24:29.901Z,102026.83
2018-08-03T22:26:57.520Z,102024.52
2018-08-03T22:29:25.762Z,102018.98
2018-08-03T22:31:53.489Z,102028.28
2018-08-03T22:34:21.479Z,102021.73
2018-08-03T22:36:49.494Z,102024.30
2018-08-03T22:39:17.849Z,102024.26
2018-08-03T22:41:45.586Z,102021.70
2018-08-03T22:44:13.235Z,102017.84
2018-08-03T22:46:41.806Z,102016.31
2018-08-03T22:49:10.111Z,102016.56
2018-08-03T22:51:38.558Z,102017.58
2018-08-03T22:54:06.948Z,102018.81
2018-08-03T22:56:34.726Z,102007.73
2018-08-03T22:59:03.038Z,102003.37
2018-08-03T23:01:31.378Z,102008.22
2018-08-03T23:03:59.830Z,102000.72
2018-08-03T23:06:28.199Z,102003.55
2018-08-03T23:08:56.654Z,101999.46
2018-08-03T23:11:24.749Z,102006.86
2018-08-03T23:13:53.145Z,102000.52
2018-08-03T23:16:21.593Z,102002.52
2018-08-03T23:18:49.854Z,102006.62
2018-08-03T23:21:18.269Z,102002.89
2018-08-03T23:23:46.068Z,102004.82
2018-08-03T23:26:14.210Z,102000.97
2018-08-03T23:28:41.921Z,102006.87
2018-08-03T23:31:10.246Z,102002.73
2018-08-03T23:33:38.089Z,102002.33
2018-08-03T23:36:06.000Z,102006.06
2018-08-03T23:38:33.783Z,102000.93
2018-08-03T23:41:02.097Z,102000.33
2018-08-03T23:43:30.221Z,102002.64
2018-08-03T23:45:58.466Z,102006.53
2018-08-03T23:48:26.407Z,102000.64
2018-08-03T23:50:54.124Z,102002.69
2018-08-03T23:53:22.444Z,101995.87
2018-08-03T23:55:50.762Z,101997.76
2018-08-03T23:58:19.076Z,101995.11
